Time;durP1;ratioP1;P1;durP2;ratioP2;P2;SDS_P1;SDS_P2;PMS_P1;PMS_P2;Temp;Humidity;BMP_temperature;BMP_pressure;BME280_temperature;BME280_humidity;BME280_pressure;Samples;Min_cycle;Max_cycle;Signal;HPM_P1;HPM_P2
2022/06/27 00:01:33;;;;;;;10.45;5.60;;;;;;;18.00;70.92;94202.59;5046296;28;20075;-74
2022/06/27 00:03:59;;;;;;;13.20;4.63;;;;;;;17.95;71.25;94206.34;5046270;28;20219;-74
2022/06/27 00:06:25;;;;;;;8.98;4.43;;;;;;;17.94;71.28;94210.16;5046273;28;20100;-74
2022/06/27 00:08:50;;;;;;;13.93;3.65;;;;;;;17.94;71.43;94204.78;5046494;28;20013;-74
2022/06/27 00:11:17;;;;;;;9.82;4.50;;;;;;;17.92;71.68;94209.72;5044997;28;20339;-74
2022/06/27 00:13:43;;;;;;;11.25;4.88;;;;;;;17.92;72.19;94217.03;5046180;28;20059;-74
2022/06/27 00:16:09;;;;;;;6.82;4.35;;;;;;;17.91;72.27;94207.38;5046203;28;20028;-74
2022/06/27 00:18:34;;;;;;;8.10;4.82;;;;;;;17.91;72.01;94207.38;5046102;28;20052;-74
2022/06/27 00:21:00;;;;;;;14.32;5.15;;;;;;;17.87;72.44;94209.22;5046134;28;20044;-76
2022/06/27 00:23:25;;;;;;;10.52;5.20;;;;;;;17.87;72.50;94204.63;5044840;28;20060;-75
2022/06/27 00:25:51;;;;;;;13.10;5.22;;;;;;;17.87;72.54;94211.91;5046004;28;20013;-76
2022/06/27 00:28:16;;;;;;;10.85;5.13;;;;;;;17.83;72.63;94204.53;5045840;28;20095;-75
2022/06/27 00:30:42;;;;;;;12.93;6.05;;;;;;;17.81;72.90;94203.31;5046056;28;20089;-75
2022/06/27 00:33:08;;;;;;;8.40;5.18;;;;;;;17.78;73.13;94204.75;5044710;28;20204;-76
2022/06/27 00:35:33;;;;;;;12.30;6.18;;;;;;;17.77;73.19;94205.13;5045757;28;20323;-75
2022/06/27 00:37:59;;;;;;;10.93;5.72;;;;;;;17.74;73.20;94195.81;5045670;28;20048;-75
2022/06/27 00:40:25;;;;;;;12.32;5.60;;;;;;;17.71;73.52;94196.53;5045537;28;20035;-76
2022/06/27 00:42:50;;;;;;;11.20;5.60;;;;;;;17.70;73.90;94196.88;5045689;28;20052;-75
2022/06/27 00:45:15;;;;;;;13.77;5.30;;;;;;;17.69;73.56;94206.06;5045588;28;20044;-75
2022/06/27 00:47:41;;;;;;;11.45;5.40;;;;;;;17.65;74.01;94200.63;5045634;28;20108;-76
2022/06/27 00:50:07;;;;;;;11.98;5.60;;;;;;;17.66;73.86;94202.16;5045555;28;20021;-76
2022/06/27 00:52:33;;;;;;;7.43;5.47;;;;;;;17.63;73.62;94200.19;5045503;28;20092;-76
2022/06/27 00:54:59;;;;;;;9.18;4.70;;;;;;;17.61;73.96;94205.91;5045490;28;20274;-76
2022/06/27 00:57:24;;;;;;;7.65;5.15;;;;;;;17.61;74.01;94205.13;5044243;28;20032;-77
2022/06/27 00:59:50;;;;;;;15.77;5.82;;;;;;;17.59;73.92;94194.69;5045392;28;20046;-77
2022/06/27 01:02:15;;;;;;;10.20;5.63;;;;;;;17.58;73.96;94195.03;5045240;28;20037;-77
2022/06/27 01:04:41;;;;;;;10.70;5.30;;;;;;;17.51;74.11;94186.81;5045406;28;20220;-76
2022/06/27 01:07:08;;;;;;;11.05;5.32;;;;;;;17.54;74.25;94194.94;5045325;28;20029;-76
2022/06/27 01:09:34;;;;;;;9.65;5.13;;;;;;;17.52;74.49;94182.97;5045344;28;20030;-76
2022/06/27 01:11:59;;;;;;;8.60;6.18;;;;;;;17.52;74.74;94180.25;5045266;28;20036;-76
2022/06/27 01:14:25;;;;;;;7.97;5.82;;;;;;;17.48;74.46;94182.88;5045105;28;20338;-76
2022/06/27 01:16:51;;;;;;;11.45;5.70;;;;;;;17.50;74.93;94177.13;5045069;28;20064;-75
2022/06/27 01:19:17;;;;;;;11.40;5.68;;;;;;;17.49;74.74;94170.19;5045079;28;20070;-76
2022/06/27 01:21:48;;;;;;;11.98;6.60;;;;;;;17.47;75.01;94172.47;5044988;28;20785;-76
2022/06/27 01:24:15;;;;;;;12.38;6.25;;;;;;;17.42;75.30;94174.28;5045041;28;20088;-76
2022/06/27 01:26:42;;;;;;;12.70;7.00;;;;;;;17.42;75.22;94176.19;5044751;28;20060;-76
2022/06/27 01:29:08;;;;;;;8.90;6.78;;;;;;;17.41;75.04;94172.72;5044834;28;20033;-76
2022/06/27 01:31:35;;;;;;;7.97;5.60;;;;;;;17.41;75.40;94170.00;5044682;28;20041;-76
2022/06/27 01:34:01;;;;;;;13.98;6.32;;;;;;;17.39;75.15;94174.97;5044710;28;20048;-76
2022/06/27 01:36:41;;;;;;;14.45;6.50;;;;;;;17.36;74.98;94177.56;5044472;28;20029;-76
2022/06/27 01:39:07;;;;;;;10.30;6.75;;;;;;;17.36;75.05;94189.16;5044536;28;20037;-76
2022/06/27 01:41:33;;;;;;;11.05;5.82;;;;;;;17.33;75.01;94184.44;5044610;28;20219;-75
2022/06/27 01:43:59;;;;;;;10.43;6.43;;;;;;;17.33;74.98;94172.91;5044545;28;20026;-75
2022/06/27 01:46:24;;;;;;;11.52;5.78;;;;;;;17.30;75.46;94189.75;5044444;28;20033;-75
2022/06/27 01:48:50;;;;;;;11.93;5.82;;;;;;;17.29;75.43;94193.56;5044555;28;20048;-76
2022/06/27 01:51:16;;;;;;;9.98;6.05;;;;;;;17.26;75.34;94200.44;5044458;28;20024;-76
2022/06/27 01:53:41;;;;;;;11.98;6.07;;;;;;;17.26;75.57;94205.84;5044454;28;20035;-76
2022/06/27 01:56:07;;;;;;;12.90;6.53;;;;;;;17.29;75.60;94209.75;5044106;28;20025;-76
2022/06/27 01:58:34;;;;;;;12.82;6.55;;;;;;;17.30;75.88;94219.38;5044006;28;20057;-76
2022/06/27 02:00:59;;;;;;;13.38;5.93;;;;;;;17.31;76.14;94216.34;5044277;28;20030;-76
2022/06/27 02:03:25;;;;;;;14.98;6.45;;;;;;;17.33;75.56;94211.38;5044357;28;20055;-76
2022/06/27 02:05:52;;;;;;;8.38;6.07;;;;;;;17.33;75.51;94218.69;5044230;28;20053;-76
2022/06/27 02:08:20;;;;;;;9.75;6.22;;;;;;;17.33;75.57;94224.09;5043912;28;20075;-76
2022/06/27 02:10:45;;;;;;;11.38;5.45;;;;;;;17.35;75.48;94224.53;5043814;28;20025;-76
2022/06/27 02:13:12;;;;;;;12.00;6.28;;;;;;;17.27;75.71;94220.84;5043864;28;20025;-76
2022/06/27 02:16:01;;;;;;;10.10;5.78;;;;;;;17.20;75.86;94218.78;5043998;28;20017;-76
2022/06/27 02:18:27;;;;;;;12.20;6.05;;;;;;;17.20;75.92;94218.00;5043986;28;20029;-76
2022/06/27 02:20:52;;;;;;;11.82;5.88;;;;;;;17.16;76.25;94220.59;5043827;28;20387;-76
2022/06/27 02:23:18;;;;;;;8.45;5.70;;;;;;;17.17;76.46;94221.38;5043889;28;20196;-76
2022/06/27 02:25:45;;;;;;;11.77;5.80;;;;;;;17.19;76.20;94221.81;5043801;28;20375;-76
2022/06/27 02:28:12;;;;;;;13.70;5.63;;;;;;;17.19;76.10;94211.03;5043636;28;20040;-76
2022/06/27 02:30:38;;;;;;;10.40;6.32;;;;;;;17.12;76.01;94216.25;5043552;28;20040;-76
2022/06/27 02:33:04;;;;;;;10.38;5.93;;;;;;;17.11;76.02;94220.81;5043684;28;20036;-76
2022/06/27 02:35:30;;;;;;;13.75;5.55;;;;;;;17.11;76.10;94220.81;5043500;28;20308;-76
2022/06/27 02:37:56;;;;;;;8.20;6.00;;;;;;;17.12;75.89;94222.41;5043708;28;20021;-76
2022/06/27 02:40:23;;;;;;;11.13;6.78;;;;;;;17.13;75.92;94225.88;5043579;28;20316;-76
2022/06/27 02:42:51;;;;;;;11.15;6.63;;;;;;;17.13;75.65;94233.97;5043472;28;20227;-76
2022/06/27 02:45:17;;;;;;;8.93;6.07;;;;;;;17.11;75.71;94226.22;5043358;28;20067;-75
2022/06/27 02:47:46;;;;;;;11.98;6.60;;;;;;;17.10;75.84;94223.88;5043353;28;20048;-74
2022/06/27 02:50:12;;;;;;;10.15;7.03;;;;;;;17.12;75.59;94232.41;5043179;28;20037;-75
2022/06/27 02:52:45;;;;;;;12.95;7.53;;;;;;;17.12;75.50;94232.41;5043315;28;20029;-75
2022/06/27 02:55:13;;;;;;;14.88;6.50;;;;;;;17.11;75.30;94236.22;5043169;28;20040;-75
2022/06/27 02:57:48;;;;;;;10.52;7.55;;;;;;;17.08;75.36;94240.38;5042778;28;20037;-75
2022/06/27 03:00:14;;;;;;;9.57;5.95;;;;;;;17.08;75.45;94240.38;5042908;28;20040;-75
2022/06/27 03:02:44;;;;;;;10.80;6.57;;;;;;;17.08;75.29;94232.31;5043151;28;20033;-75
2022/06/27 03:05:10;;;;;;;8.45;5.72;;;;;;;17.07;75.41;94243.41;5043146;28;20219;-75
2022/06/27 03:07:40;;;;;;;8.38;5.32;;;;;;;17.11;75.43;94246.97;5043185;28;20328;-75
2022/06/27 03:10:07;;;;;;;6.63;4.93;;;;;;;17.11;75.38;94246.97;5043030;28;20100;-75
2022/06/27 03:12:32;;;;;;;9.32;5.00;;;;;;;17.11;75.03;94249.69;5042908;28;20036;-75
2022/06/27 03:14:58;;;;;;;14.00;5.60;;;;;;;17.14;74.80;94249.78;5042914;28;20223;-75
2022/06/27 03:17:23;;;;;;;6.75;4.30;;;;;;;17.15;74.95;94253.25;5043027;28;20021;-75
2022/06/27 03:19:50;;;;;;;6.75;4.88;;;;;;;17.15;74.82;94245.16;5042152;28;20097;-75
2022/06/27 03:22:16;;;;;;;11.32;5.00;;;;;;;17.17;74.93;94241.00;5042924;28;20073;-75
2022/06/27 03:24:42;;;;;;;9.23;4.68;;;;;;;17.19;74.97;94241.44;5042769;28;20029;-75
2022/06/27 03:27:07;;;;;;;11.02;4.90;;;;;;;17.20;74.98;94243.00;5042556;28;20025;-74
2022/06/27 03:29:32;;;;;;;9.07;4.60;;;;;;;17.25;74.92;94236.59;5042772;28;20097;-74
2022/06/27 03:31:58;;;;;;;9.13;5.13;;;;;;;17.25;74.82;94241.97;5042777;28;20044;-75
2022/06/27 03:34:24;;;;;;;10.20;5.03;;;;;;;17.30;75.14;94239.03;5042410;28;20255;-75
2022/06/27 03:36:49;;;;;;;9.55;5.15;;;;;;;17.35;74.93;94244.16;5042477;28;20021;-74
2022/06/27 03:39:15;;;;;;;15.43;5.68;;;;;;;17.39;75.16;94245.03;5042198;28;20056;-74
2022/06/27 03:41:40;;;;;;;11.70;5.38;;;;;;;17.43;75.16;94251.28;5042445;28;20025;-74
2022/06/27 03:44:11;;;;;;;9.70;5.18;;;;;;;17.50;75.50;94252.59;5042182;28;20026;-75
2022/06/27 03:46:37;;;;;;;8.95;5.45;;;;;;;17.52;75.54;94251.09;5042507;28;20017;-75
2022/06/27 03:51:48;;;;;;;8.95;6.13;;;;;;;17.58;75.25;94249.72;5042599;28;20083;-75
2022/06/27 03:54:14;;;;;;;12.98;6.97;;;;;;;17.60;75.45;94252.06;5042588;28;20323;-75
2022/06/27 03:56:39;;;;;;;16.40;6.53;;;;;;;17.62;75.11;94249.81;5042543;28;20021;-75
2022/06/27 03:59:05;;;;;;;8.90;5.93;;;;;;;17.64;75.03;94258.34;5042436;28;20041;-75
2022/06/27 04:01:30;;;;;;;8.13;5.97;;;;;;;17.67;75.07;94246.06;5042215;28;20127;-75
2022/06/27 04:03:56;;;;;;;13.77;6.28;;;;;;;17.67;75.16;94252.25;5042398;28;20216;-75
2022/06/27 04:06:21;;;;;;;12.05;5.68;;;;;;;17.73;74.99;94247.41;5042439;28;20022;-75
2022/06/27 04:08:47;;;;;;;13.40;6.72;;;;;;;17.75;74.99;94258.63;5042343;28;20028;-75
2022/06/27 04:11:12;;;;;;;12.65;6.22;;;;;;;17.71;74.05;94253.13;5042358;28;20084;-75
2022/06/27 04:13:38;;;;;;;24.10;6.65;;;;;;;17.73;73.95;94255.47;5042412;28;20323;-74
2022/06/27 04:16:04;;;;;;;9.00;6.68;;;;;;;17.67;74.48;94254.97;5042303;28;20067;-74
2022/06/27 04:18:30;;;;;;;19.02;6.15;;;;;;;17.69;75.22;94255.41;5042470;28;20022;-75
2022/06/27 04:20:55;;;;;;;14.88;7.40;;;;;;;17.71;75.23;94258.53;5042408;28;20064;-74
2022/06/27 04:23:21;;;;;;;16.38;6.57;;;;;;;17.73;75.04;94250.09;5042228;28;20076;-88
2022/06/27 04:25:47;;;;;;;14.20;7.18;;;;;;;17.78;75.13;94249.81;5042989;28;20037;-90
2022/06/27 04:28:13;;;;;;;10.63;6.10;;;;;;;17.83;74.71;94244.97;5043186;28;20064;-91
2022/06/27 04:30:40;;;;;;;13.88;6.65;;;;;;;17.89;75.35;94248.19;5043004;28;20216;-90
2022/06/27 04:33:07;;;;;;;15.50;6.45;;;;;;;17.96;75.26;94250.28;5046774;28;20018;-89
2022/06/27 04:35:33;;;;;;;9.57;7.38;;;;;;;17.99;74.82;94244.97;5045386;28;20029;-88
2022/06/27 04:37:58;;;;;;;13.60;7.53;;;;;;;18.03;75.20;94247.72;5046061;28;20443;-86
2022/06/27 04:40:25;;;;;;;14.38;7.22;;;;;;;18.07;75.30;94253.97;5046628;28;20026;-87
2022/06/27 04:42:50;;;;;;;14.95;7.35;;;;;;;18.10;75.96;94253.28;5046125;28;20037;-86
2022/06/27 04:45:16;;;;;;;17.88;7.70;;;;;;;18.09;76.05;94251.72;5045744;28;20087;-86
2022/06/27 04:47:43;;;;;;;17.80;7.63;;;;;;;18.12;76.15;94251.03;5045937;28;20022;-86
2022/06/27 04:50:15;;;;;;;19.95;7.10;;;;;;;18.12;76.04;94247.56;5045812;28;20025;-89
2022/06/27 04:52:41;;;;;;;15.82;7.97;;;;;;;18.14;76.12;94246.06;5047180;28;20327;-94
2022/06/27 04:55:08;;;;;;;14.57;8.30;;;;;;;18.19;75.24;94240.38;5047659;28;20017;-89
2022/06/27 04:57:38;;;;;;;19.23;7.85;;;;;;;18.20;75.11;94250.06;5046158;28;20022;-90
2022/06/27 05:00:07;;;;;;;15.25;9.73;;;;;;;18.25;74.59;94238.97;5046238;28;20049;-89
2022/06/27 05:02:32;;;;;;;18.13;8.02;;;;;;;18.33;74.60;94244.53;5046526;28;20081;-90
2022/06/27 05:04:58;;;;;;;13.75;8.57;;;;;;;18.35;74.19;94247.66;5046449;28;20025;-90
2022/06/27 05:07:23;;;;;;;16.20;8.65;;;;;;;18.38;73.92;94255.84;5045937;28;20055;-91
2022/06/27 05:09:56;;;;;;;12.75;8.27;;;;;;;18.41;74.06;94255.13;5045775;28;20029;-90
2022/06/27 05:12:22;;;;;;;16.45;8.45;;;;;;;18.42;73.28;94264.03;5045892;28;20060;-91
2022/06/27 05:14:48;;;;;;;15.50;8.57;;;;;;;18.43;73.13;94268.28;5045508;28;20274;-90
2022/06/27 05:17:13;;;;;;;16.75;8.10;;;;;;;18.51;73.17;94270.00;5046219;28;20097;-89
2022/06/27 05:19:39;;;;;;;14.68;8.50;;;;;;;18.60;73.03;94273.28;5044839;28;20312;-75
2022/06/27 05:22:04;;;;;;;10.73;7.53;;;;;;;18.62;72.39;94276.41;5044946;28;20028;-77
2022/06/27 05:24:30;;;;;;;15.98;9.10;;;;;;;18.62;72.27;94278.31;5045196;28;20052;-76
2022/06/27 05:26:56;;;;;;;11.80;8.05;;;;;;;18.60;71.39;94269.78;5044365;28;20029;-76
2022/06/27 05:29:22;;;;;;;13.27;7.47;;;;;;;18.67;73.07;94271.88;5044628;28;20067;-76
2022/06/27 05:31:47;;;;;;;16.75;7.88;;;;;;;18.72;72.71;94260.78;5044822;28;20108;-76
2022/06/27 05:34:13;;;;;;;25.77;9.48;;;;;;;18.79;72.73;94267.13;5044861;28;20034;-76
2022/06/27 05:36:39;;;;;;;13.07;7.93;;;;;;;18.89;72.21;94263.09;5044690;28;20017;-76
2022/06/27 05:39:05;;;;;;;16.00;9.18;;;;;;;18.92;71.83;94272.41;5044745;28;20021;-76
2022/06/27 05:41:31;;;;;;;13.60;8.93;;;;;;;18.94;71.78;94272.81;5044525;28;20028;-75
2022/06/27 05:43:59;;;;;;;21.70;8.63;;;;;;;19.00;71.73;94272.16;5044033;28;20032;-76
2022/06/27 05:46:25;;;;;;;15.57;8.65;;;;;;;18.88;72.60;94274.25;5044600;28;20021;-76
2022/06/27 05:48:50;;;;;;;23.70;8.95;;;;;;;18.97;72.62;94286.41;5044138;28;20100;-76
2022/06/27 05:51:16;;;;;;;17.58;8.40;;;;;;;19.12;71.51;94278.56;5044500;28;20017;-76
2022/06/27 05:53:43;;;;;;;16.27;9.30;;;;;;;19.20;71.71;94285.69;5044410;28;20051;-75
2022/06/27 05:56:10;;;;;;;14.25;8.80;;;;;;;19.31;70.69;94275.84;5044109;28;20339;-76
2022/06/27 05:58:36;;;;;;;18.23;9.63;;;;;;;19.42;69.91;94278.75;5044003;28;20056;-76
2022/06/27 06:01:02;;;;;;;15.60;8.95;;;;;;;19.47;70.49;94278.44;5044269;28;20201;-76
2022/06/27 06:03:28;;;;;;;18.70;9.05;;;;;;;19.55;69.69;94282.06;5044119;28;20207;-76
2022/06/27 06:05:54;;;;;;;15.32;9.43;;;;;;;19.65;69.35;94278.75;5044042;28;20039;-75
2022/06/27 06:08:21;;;;;;;15.80;9.18;;;;;;;19.77;68.05;94283.25;5043818;28;20092;-75
2022/06/27 06:10:46;;;;;;;25.10;10.70;;;;;;;19.81;68.50;94287.56;5043951;28;20059;-76
2022/06/27 06:13:13;;;;;;;17.42;9.68;;;;;;;19.93;68.86;94289.31;5043881;28;20096;-75
2022/06/27 06:15:40;;;;;;;16.17;8.93;;;;;;;20.07;68.00;94288.75;5043861;28;20029;-75
2022/06/27 06:18:07;;;;;;;20.65;8.80;;;;;;;20.16;68.74;94283.09;5043761;28;20320;-75
2022/06/27 06:20:33;;;;;;;22.63;10.90;;;;;;;20.29;68.54;94276.31;5043850;28;20063;-75
2022/06/27 06:23:01;;;;;;;23.30;9.88;;;;;;;20.40;67.65;94279.19;5043705;28;20327;-75
2022/06/27 06:25:27;;;;;;;23.20;10.85;;;;;;;20.39;67.41;94283.03;5043826;28;20321;-75
2022/06/27 06:27:56;;;;;;;50.97;14.68;;;;;;;20.39;67.25;94288.44;5043667;28;20025;-77
2022/06/27 06:30:22;;;;;;;22.95;9.48;;;;;;;20.53;66.61;94288.66;5043578;28;20017;-77
2022/06/27 06:32:49;;;;;;;13.85;8.38;;;;;;;20.62;65.93;94291.91;5043645;28;20049;-77
2022/06/27 06:35:15;;;;;;;20.70;9.65;;;;;;;20.62;66.23;94299.25;5043212;28;20018;-77
2022/06/27 06:37:41;;;;;;;22.30;9.65;;;;;;;20.68;65.55;94289.66;5043354;28;20052;-77
2022/06/27 06:40:08;;;;;;;15.90;8.55;;;;;;;20.73;65.54;94289.34;5042785;28;20092;-76
2022/06/27 06:42:35;;;;;;;15.60;6.82;;;;;;;20.77;65.23;94284.75;5043676;28;20037;-77
2022/06/27 06:45:01;;;;;;;14.18;7.00;;;;;;;20.91;64.34;94294.97;5043319;28;20029;-72
2022/06/27 06:47:27;;;;;;;10.98;6.57;;;;;;;20.99;63.50;94299.34;5043102;28;20025;-83
2022/06/27 06:49:52;;;;;;;16.52;6.28;;;;;;;21.04;62.42;94301.75;5042227;28;20262;-83
2022/06/27 06:52:19;;;;;;;9.70;5.72;;;;;;;21.10;62.20;94302.16;5043504;28;20041;-82
2022/06/27 06:54:45;;;;;;;10.57;6.55;;;;;;;21.19;61.64;94307.34;5042255;28;20334;-80
2022/06/27 06:57:11;;;;;;;8.50;5.28;;;;;;;21.26;60.15;94301.97;5043024;28;20362;-82
2022/06/27 06:59:37;;;;;;;13.73;6.47;;;;;;;21.33;60.29;94301.25;5042935;28;20037;-82
2022/06/27 07:02:04;;;;;;;16.95;6.25;;;;;;;21.48;60.47;94305.72;5043498;28;20139;-81
2022/06/27 07:04:29;;;;;;;12.27;6.00;;;;;;;21.63;61.39;94312.06;5043366;28;20131;-81
2022/06/27 07:06:56;;;;;;;9.80;6.30;;;;;;;21.67;60.77;94307.47;5042917;28;20037;-82
2022/06/27 07:09:21;;;;;;;11.10;6.22;;;;;;;21.68;60.86;94313.69;5043005;28;20060;-81
2022/06/27 07:11:47;;;;;;;15.75;7.05;;;;;;;21.80;60.88;94308.78;5043215;28;20017;-82
2022/06/27 07:14:14;;;;;;;22.15;7.57;;;;;;;21.93;59.56;94311.19;5042908;28;20021;-80
2022/06/27 07:16:40;;;;;;;16.80;7.50;;;;;;;21.96;59.39;94310.44;5042995;28;20013;-81
2022/06/27 07:19:07;;;;;;;18.88;7.45;;;;;;;21.99;59.47;94317.84;5042614;28;20225;-84
2022/06/27 07:21:34;;;;;;;13.80;5.68;;;;;;;22.03;58.69;94321.38;5042430;28;20068;-79
2022/06/27 07:24:01;;;;;;;16.02;7.65;;;;;;;22.02;58.30;94326.03;5043004;28;20043;-77
2022/06/27 07:26:28;;;;;;;9.32;6.10;;;;;;;21.94;58.01;94324.41;5042778;28;20014;-79
2022/06/27 07:28:54;;;;;;;17.75;5.63;;;;;;;21.99;57.51;94323.28;5042828;28;20223;-78
2022/06/27 07:31:20;;;;;;;15.00;6.53;;;;;;;21.94;58.20;94326.31;5042872;28;20014;-80
2022/06/27 07:33:48;;;;;;;9.93;5.57;;;;;;;21.93;58.37;94322.06;5042531;28;20316;-77
2022/06/27 07:36:15;;;;;;;19.85;6.47;;;;;;;21.95;58.33;94325.19;5042721;28;20048;-81
2022/06/27 07:38:42;;;;;;;13.07;6.43;;;;;;;22.03;58.28;94315.94;5041545;28;20025;-78
2022/06/27 07:41:09;;;;;;;12.02;6.05;;;;;;;22.14;57.66;94316.78;5042653;28;20108;-79
2022/06/27 07:43:36;;;;;;;14.48;6.35;;;;;;;22.23;57.25;94311.88;5041603;28;20017;-80
2022/06/27 07:46:02;;;;;;;9.82;5.68;;;;;;;22.30;56.81;94316.56;5042766;28;20079;-80
2022/06/27 07:48:29;;;;;;;9.05;5.30;;;;;;;22.37;56.31;94316.63;5042976;28;20068;-83
2022/06/27 07:50:56;;;;;;;19.67;5.30;;;;;;;22.41;56.04;94314.72;5042454;28;20021;-85
2022/06/27 07:53:22;;;;;;;11.30;5.57;;;;;;;22.59;55.56;94309.41;5042472;28;20017;-81
2022/06/27 07:55:55;;;;;;;14.73;5.55;;;;;;;22.71;53.27;94326.53;5042615;28;20243;-80
2022/06/27 07:58:41;;;;;;;9.60;5.10;;;;;;;22.70;52.44;94314.91;5042573;28;20121;-81
2022/06/27 08:01:09;;;;;;;13.20;4.95;;;;;;;22.70;52.26;94316.84;5042494;28;20299;-83
2022/06/27 08:03:42;;;;;;;9.82;4.60;;;;;;;22.76;52.56;94307.19;5041826;28;20338;-82
2022/06/27 08:06:23;;;;;;;8.40;3.92;;;;;;;22.87;51.83;94315.38;5043590;28;20197;-81
2022/06/27 08:08:57;;;;;;;11.88;4.57;;;;;;;22.94;50.40;94313.50;5046296;28;20021;-84
2022/06/27 08:11:25;;;;;;;12.15;4.10;;;;;;;22.98;50.62;94311.56;5046766;28;20035;-83
2022/06/27 08:13:53;;;;;;;14.52;4.78;;;;;;;23.06;50.35;94309.69;5046728;28;20025;-82
2022/06/27 08:16:21;;;;;;;15.65;4.32;;;;;;;23.08;49.94;94310.09;5046386;28;20228;-80
2022/06/27 08:18:48;;;;;;;10.10;4.28;;;;;;;23.11;49.67;94316.69;5046163;28;20223;-80
2022/06/27 08:21:17;;;;;;;9.63;4.25;;;;;;;23.08;50.44;94318.25;5045988;28;20057;-78
2022/06/27 08:23:44;;;;;;;9.07;3.65;;;;;;;23.08;51.75;94314.72;5046272;28;20242;-82
2022/06/27 08:26:12;;;;;;;16.27;5.82;;;;;;;23.12;50.83;94312.81;5046258;28;20032;-83
2022/06/27 08:28:39;;;;;;;10.93;5.50;;;;;;;23.26;49.90;94323.72;5046224;28;20029;-84
2022/06/27 08:31:07;;;;;;;10.25;4.70;;;;;;;23.24;49.14;94317.91;5046218;28;20331;-84
2022/06/27 08:33:34;;;;;;;9.30;4.20;;;;;;;23.26;49.35;94314.81;5046193;28;20027;-82
2022/06/27 08:36:02;;;;;;;6.97;4.38;;;;;;;23.28;50.69;94323.34;5046296;28;20067;-81
2022/06/27 08:38:28;;;;;;;5.88;4.15;;;;;;;23.29;51.85;94316.78;5046177;28;20024;-81
2022/06/27 08:40:54;;;;;;;10.45;4.07;;;;;;;23.34;49.63;94321.81;5046334;28;20021;-83
2022/06/27 08:43:20;;;;;;;9.23;4.25;;;;;;;23.40;49.13;94315.63;5045861;28;20255;-81
2022/06/27 08:45:47;;;;;;;7.32;3.80;;;;;;;23.49;49.02;94314.47;5046329;28;20017;-81
2022/06/27 08:48:14;;;;;;;8.93;3.72;;;;;;;23.56;48.19;94311.78;5046318;28;20044;-81
2022/06/27 08:50:41;;;;;;;10.05;3.83;;;;;;;23.48;47.20;94312.94;5046003;28;20020;-84
2022/06/27 08:53:07;;;;;;;9.90;4.07;;;;;;;23.47;47.12;94314.09;5046021;28;20311;-83
2022/06/27 08:55:34;;;;;;;7.22;3.60;;;;;;;23.41;45.59;94316.44;5045724;28;20315;-82
2022/06/27 08:58:06;;;;;;;6.85;3.67;;;;;;;23.40;45.03;94307.47;5046412;28;20075;-82
2022/06/27 09:00:36;;;;;;;8.73;3.42;;;;;;;23.51;45.31;94312.16;5046492;28;20025;-81
2022/06/27 09:03:03;;;;;;;7.10;3.20;;;;;;;23.56;46.56;94309.84;5046261;28;20021;-83
2022/06/27 09:05:31;;;;;;;5.20;3.15;;;;;;;23.55;47.94;94308.31;5044954;28;20053;-85
2022/06/27 09:08:02;;;;;;;12.75;4.47;;;;;;;23.61;48.38;94311.41;5046366;28;20096;-85
2022/06/27 09:10:39;;;;;;;7.60;3.83;;;;;;;23.74;48.58;94304.44;5046135;28;20023;-85
2022/06/27 09:13:08;;;;;;;11.98;4.07;;;;;;;23.88;46.21;94320.06;5046274;28;20282;-84
2022/06/27 09:15:46;;;;;;;6.30;3.50;;;;;;;23.87;44.38;94323.16;5045591;28;20021;-81
2022/06/27 09:18:15;;;;;;;7.55;3.83;;;;;;;23.90;46.45;94312.28;5043332;28;20339;-81
2022/06/27 09:20:46;;;;;;;12.10;3.78;;;;;;;24.01;46.39;94309.56;5045098;28;20032;-81
2022/06/27 09:23:40;;;;;;;7.93;3.70;;;;;;;24.22;45.52;94301.41;5045128;28;20022;-82
2022/06/27 09:26:19;;;;;;;9.85;3.72;;;;;;;24.33;43.77;94303.34;5045581;28;20193;-88
2022/06/27 09:28:58;;;;;;;12.57;3.20;;;;;;;24.22;43.82;94303.34;5045632;28;20021;-86
2022/06/27 09:31:26;;;;;;;7.97;3.45;;;;;;;24.37;44.79;94307.63;5047289;28;20036;-89
2022/06/27 09:34:16;;;;;;;8.63;3.20;;;;;;;24.61;45.00;94306.06;5051053;28;20067;-95
2022/06/27 09:36:49;;;;;;;12.70;4.32;;;;;;;24.83;42.87;94309.53;5050064;28;20053;-95
2022/06/27 09:39:24;;;;;;;7.07;3.55;;;;;;;24.83;43.37;94306.00;5048216;28;20031;-94
2022/06/27 09:42:07;;;;;;;15.07;3.05;;;;;;;24.83;42.82;94301.34;5048502;28;20025;-93
2022/06/27 09:44:38;;;;;;;6.60;3.38;;;;;;;24.66;43.62;94293.97;5048965;28;20244;-91
2022/06/27 09:47:17;;;;;;;6.72;3.25;;;;;;;24.83;43.75;94287.72;5056819;28;20013;-93
2022/06/27 09:49:50;;;;;;;6.30;3.17;;;;;;;24.93;43.36;94296.25;5058092;28;20022;-96
2022/06/27 09:52:25;;;;;;;6.40;3.03;;;;;;;24.98;43.58;94293.91;5055040;28;20021;-95
2022/06/27 09:54:53;;;;;;;7.65;3.30;;;;;;;25.03;43.15;94304.41;5051015;28;20018;-95
2022/06/27 09:57:20;;;;;;;6.68;3.13;;;;;;;25.05;41.93;94297.78;5049350;28;20044;-94
2022/06/27 10:06:50;;;;;;;6.80;3.08;;;;;;;24.97;41.64;94286.91;4735312;23;20227;-79
2022/06/27 10:09:20;;;;;;;6.68;2.90;;;;;;;25.06;43.03;94285.72;4889033;29;20290;-80
2022/06/27 10:12:24;;;;;;;7.97;3.25;;;;;;;25.13;42.81;94289.16;4889561;29;20157;-81
2022/06/27 10:15:15;;;;;;;8.50;2.92;;;;;;;25.20;42.29;94288.38;4889531;29;20383;-83
2022/06/27 10:17:46;;;;;;;5.85;3.05;;;;;;;25.44;44.38;94278.53;4888901;29;20025;-84
2022/06/27 10:20:16;;;;;;;5.65;3.10;;;;;;;25.45;42.74;94279.31;4889640;29;20036;-83
2022/06/27 10:22:42;;;;;;;5.88;2.67;;;;;;;25.67;42.98;94280.75;4889609;29;20366;-80
2022/06/27 10:25:26;;;;;;;7.38;2.88;;;;;;;25.95;42.15;94281.75;4888232;29;20024;-80
2022/06/27 10:28:10;;;;;;;10.00;2.85;;;;;;;26.20;42.03;94268.69;4887751;29;20025;-78
2022/06/27 10:30:44;;;;;;;4.88;2.75;;;;;;;26.50;40.48;94269.19;4887645;29;20025;-78
2022/06/27 10:33:21;;;;;;;4.22;3.05;;;;;;;26.64;39.92;94271.81;4888017;29;20025;-78
2022/06/27 10:35:57;;;;;;;4.05;2.75;;;;;;;26.73;38.22;94274.09;4887929;29;20288;-77
2022/06/27 10:38:26;;;;;;;6.15;2.90;;;;;;;26.84;39.33;94271.22;4888273;29;20039;-77
2022/06/27 10:40:53;;;;;;;8.13;2.63;;;;;;;27.06;39.40;94278.00;4889345;29;20307;-77
2022/06/27 10:43:45;;;;;;;4.07;2.22;;;;;;;27.30;38.71;94265.25;4889101;29;20044;-75
2022/06/27 10:46:10;;;;;;;8.55;2.47;;;;;;;27.42;38.28;94261.94;4889155;29;20077;-75
2022/06/27 10:48:44;;;;;;;4.95;2.60;;;;;;;27.53;36.94;94267.28;4889059;29;20096;-74
2022/06/27 10:51:18;;;;;;;7.78;3.00;;;;;;;27.56;37.06;94265.66;4888937;29;20021;-75
2022/06/27 10:53:44;;;;;;;7.82;2.55;;;;;;;27.64;36.98;94261.66;4888875;29;20025;-75
2022/06/27 10:56:28;;;;;;;7.70;2.85;;;;;;;27.77;36.86;94264.59;4888852;29;20156;-75
2022/06/27 10:58:53;;;;;;;6.13;2.55;;;;;;;27.74;36.80;94271.69;4888774;29;20060;-77
2022/06/27 11:01:19;;;;;;;6.43;3.15;;;;;;;27.56;37.77;94266.47;4888706;29;20336;-75
2022/06/27 11:03:46;;;;;;;3.80;2.50;;;;;;;27.47;38.01;94263.44;4888682;29;20383;-75
2022/06/27 11:06:13;;;;;;;9.52;3.15;;;;;;;27.41;36.69;94262.34;4888784;29;20051;-74
2022/06/27 11:08:41;;;;;;;7.93;2.47;;;;;;;27.55;37.73;94264.91;4888718;29;20061;-74
2022/06/27 11:11:07;;;;;;;9.57;2.97;;;;;;;27.78;36.14;94260.66;4888877;29;20049;-73
2022/06/27 11:13:36;;;;;;;5.03;2.80;;;;;;;27.87;36.71;94254.72;4888887;29;20346;-73
2022/06/27 11:16:05;;;;;;;7.13;2.75;;;;;;;27.90;35.61;94251.13;4889183;29;20024;-73
2022/06/27 11:18:41;;;;;;;6.22;2.92;;;;;;;28.05;37.63;94249.72;4888806;29;20346;-73
2022/06/27 11:21:08;;;;;;;9.68;2.58;;;;;;;28.28;36.55;94248.19;4888700;29;20035;-73
2022/06/27 11:23:57;;;;;;;4.65;2.35;;;;;;;28.50;36.40;94249.38;4887721;29;20033;-73
2022/06/27 11:26:28;;;;;;;6.22;2.50;;;;;;;28.54;35.59;94250.09;4888719;29;20029;-73
2022/06/27 11:34:24;;;;;;;5.05;2.90;;;;;;;29.13;34.18;94254.09;4888597;29;20223;-73
2022/06/27 11:36:50;;;;;;;5.55;2.90;;;;;;;29.10;33.84;94248.66;4888553;29;20094;-74
2022/06/27 11:39:22;;;;;;;12.95;3.05;;;;;;;29.03;33.42;94246.81;4888598;29;20076;-73
2022/06/27 11:41:54;;;;;;;6.45;2.60;;;;;;;29.01;34.27;94239.00;4890425;29;20025;-72
2022/06/27 11:44:19;;;;;;;3.88;2.30;;;;;;;29.09;33.90;94250.63;4892517;29;20083;-73
2022/06/27 11:46:49;;;;;;;4.22;2.40;;;;;;;29.21;32.91;94254.72;4891222;29;20358;-73
2022/06/27 11:49:17;;;;;;;8.15;2.35;;;;;;;29.04;33.95;94245.63;4892320;29;20041;-73